createdAt,value
2018-07-30T00:01:11.829Z,89.20
2018-07-30T00:03:39.221Z,89.70
2018-07-30T00:06:06.633Z,89.50
2018-07-30T00:08:34.570Z,88.40
2018-07-30T00:11:02.884Z,90.10
2018-07-30T00:13:30.701Z,87.80
2018-07-30T00:15:58.236Z,88.20
2018-07-30T00:18:25.605Z,88.90
2018-07-30T00:20:53.038Z,90.10
2018-07-30T00:23:20.659Z,90.50
2018-07-30T00:28:15.409Z,88.60
2018-07-30T00:30:42.769Z,90.10
2018-07-30T00:33:10.106Z,90.30
2018-07-30T00:35:37.489Z,90.50
2018-07-30T00:38:05.137Z,90.00
2018-07-30T00:40:33.474Z,90.10
2018-07-30T00:43:01.425Z,90.50
2018-07-30T00:45:30.205Z,90.70
2018-07-30T00:47:57.949Z,91.00
2018-07-30T00:50:25.289Z,90.70
2018-07-30T00:52:52.837Z,90.50
2018-07-30T00:55:20.297Z,91.30
2018-07-30T00:57:47.701Z,91.50
2018-07-30T01:00:15.197Z,91.60
2018-07-30T01:02:42.544Z,92.10
2018-07-30T01:05:09.897Z,92.30
2018-07-30T01:07:37.427Z,92.30
2018-07-30T01:10:05.575Z,92.50
2018-07-30T01:12:33.566Z,92.80
2018-07-30T01:15:01.848Z,93.00
2018-07-30T01:17:29.405Z,93.00
2018-07-30T01:19:56.777Z,94.10
2018-07-30T01:22:24.125Z,93.60
2018-07-30T01:24:51.811Z,93.50
2018-07-30T01:27:19.269Z,94.20
2018-07-30T01:29:46.737Z,93.80
2018-07-30T01:32:14.093Z,93.50
2018-07-30T01:34:41.433Z,94.10
2018-07-30T01:37:08.822Z,94.30
2018-07-30T01:39:36.225Z,94.40
2018-07-30T01:42:04.345Z,94.10
2018-07-30T01:44:32.665Z,94.20
2018-07-30T01:47:01.111Z,94.60
2018-07-30T01:49:28.534Z,94.90
2018-07-30T01:51:55.897Z,95.30
2018-07-30T01:54:23.301Z,95.50
2018-07-30T01:56:51.093Z,96.20
2018-07-30T01:59:18.541Z,96.20
2018-07-30T02:01:45.949Z,96.50
2018-07-30T02:04:13.285Z,96.10
2018-07-30T02:06:40.657Z,96.80
2018-07-30T02:09:09.480Z,97.30
2018-07-30T02:11:37.054Z,97.20
2018-07-30T02:14:05.289Z,97.70
2018-07-30T02:16:34.077Z,97.80
2018-07-30T02:19:02.898Z,98.30
2018-07-30T02:21:31.987Z,97.70
2018-07-30T02:23:59.922Z,97.20
2018-07-30T02:26:27.693Z,97.90
2018-07-30T02:28:55.037Z,97.80
2018-07-30T02:31:22.426Z,98.00
2018-07-30T02:33:49.893Z,98.20
2018-07-30T02:36:17.250Z,98.40
2018-07-30T02:38:44.617Z,98.60
2018-07-30T02:41:11.964Z,98.60
2018-07-30T02:43:39.353Z,98.80
2018-07-30T02:46:06.789Z,98.90
2018-07-30T02:48:34.549Z,99.20
2018-07-30T02:51:02.818Z,99.80
2018-07-30T02:53:31.308Z,99.90
2018-07-30T02:55:58.841Z,99.90
2018-07-30T02:58:26.195Z,99.90
2018-07-30T03:00:53.525Z,99.90
2018-07-30T03:03:21.209Z,99.90
2018-07-30T03:05:48.707Z,99.90
2018-07-30T03:08:16.105Z,99.90
2018-07-30T03:10:43.490Z,99.90
2018-07-30T03:13:10.878Z,99.90
2018-07-30T03:15:38.248Z,99.90
2018-07-30T03:18:05.935Z,99.90
2018-07-30T03:20:34.219Z,99.90
2018-07-30T03:23:02.981Z,99.90
2018-07-30T03:25:31.116Z,99.90
2018-07-30T03:27:58.849Z,99.90
2018-07-30T03:30:26.205Z,99.90
2018-07-30T03:32:53.617Z,99.90
2018-07-30T03:35:21.450Z,99.90
2018-07-30T03:37:48.999Z,99.90
2018-07-30T03:40:16.444Z,99.90
2018-07-30T03:42:43.832Z,99.90
2018-07-30T03:45:11.191Z,99.90
2018-07-30T03:47:38.588Z,99.90
2018-07-30T03:50:06.417Z,99.90
2018-07-30T03:52:34.009Z,99.90
2018-07-30T03:55:01.874Z,99.90
2018-07-30T03:57:30.001Z,99.90
2018-07-30T03:59:57.627Z,99.90
2018-07-30T04:02:24.976Z,99.90
2018-07-30T04:04:52.356Z,99.90
2018-07-30T04:07:20.001Z,99.90
2018-07-30T04:09:47.371Z,99.90
2018-07-30T04:12:14.770Z,99.90
2018-07-30T04:14:42.126Z,99.90
2018-07-30T04:17:09.457Z,99.90
2018-07-30T04:19:36.957Z,99.90
2018-07-30T04:22:04.772Z,99.90
2018-07-30T04:24:32.362Z,99.90
2018-07-30T04:27:00.552Z,99.90
2018-07-30T04:29:28.046Z,99.90
2018-07-30T04:31:55.393Z,99.90
2018-07-30T04:34:22.763Z,99.90
2018-07-30T04:36:50.218Z,99.90
2018-07-30T04:39:17.593Z,99.90
2018-07-30T04:41:44.965Z,99.90
2018-07-30T04:44:12.509Z,99.90
2018-07-30T04:46:39.845Z,99.90
2018-07-30T04:49:07.321Z,99.90
2018-07-30T04:51:35.620Z,99.90
2018-07-30T04:54:03.919Z,99.90
2018-07-30T04:56:32.517Z,99.90
2018-07-30T04:59:01.097Z,99.90
2018-07-30T05:01:28.530Z,99.90
2018-07-30T05:03:55.929Z,99.90
2018-07-30T05:06:23.302Z,99.90
2018-07-30T05:08:51.274Z,99.90
2018-07-30T05:11:18.691Z,99.90
2018-07-30T05:13:46.593Z,99.90
2018-07-30T05:16:13.973Z,99.90
2018-07-30T05:18:41.350Z,99.90
2018-07-30T05:21:09.141Z,99.90
2018-07-30T05:23:36.585Z,99.90
2018-07-30T05:26:04.229Z,99.90
2018-07-30T05:28:31.881Z,99.90
2018-07-30T05:30:59.480Z,99.90
2018-07-30T05:33:26.921Z,99.90
2018-07-30T05:35:54.477Z,99.90
2018-07-30T05:38:22.006Z,99.90
2018-07-30T05:40:49.432Z,99.90
2018-07-30T05:45:44.281Z,99.90
2018-07-30T05:48:11.637Z,99.90
2018-07-30T05:50:39.025Z,99.90
2018-07-30T05:53:06.471Z,99.90
2018-07-30T05:55:34.085Z,99.90
2018-07-30T05:58:02.204Z,99.90
2018-07-30T06:00:29.643Z,99.90
2018-07-30T06:02:57.191Z,99.90
2018-07-30T06:05:24.587Z,99.90
2018-07-30T06:07:52.110Z,99.90
2018-07-30T06:10:19.636Z,99.90
2018-07-30T06:12:47.057Z,99.90
2018-07-30T06:15:14.410Z,99.90
2018-07-30T06:17:41.771Z,99.90
2018-07-30T06:20:10.337Z,99.90
2018-07-30T06:22:38.125Z,99.90
2018-07-30T06:25:06.505Z,99.90
2018-07-30T06:27:34.260Z,99.40
2018-07-30T06:30:04.284Z,99.90
2018-07-30T06:32:33.723Z,99.10
2018-07-30T06:35:02.770Z,99.90
2018-07-30T06:37:32.545Z,98.70
2018-07-30T06:40:01.300Z,97.00
2018-07-30T06:42:29.105Z,96.90
2018-07-30T06:44:56.626Z,97.00
2018-07-30T06:47:24.050Z,95.70
2018-07-30T06:49:51.927Z,96.10
2018-07-30T06:52:19.447Z,96.30
2018-07-30T06:54:47.109Z,93.40
2018-07-30T06:57:14.444Z,93.50
2018-07-30T06:59:41.798Z,92.50
2018-07-30T07:02:09.173Z,92.50
2018-07-30T07:04:36.907Z,92.20
2018-07-30T07:07:05.511Z,91.50
2018-07-30T07:09:34.733Z,91.10
2018-07-30T07:12:03.345Z,90.90
2018-07-30T07:14:33.145Z,89.00
2018-07-30T07:17:02.875Z,91.10
2018-07-30T07:19:30.837Z,91.10
2018-07-30T07:21:59.127Z,91.30
2018-07-30T07:24:26.468Z,91.20
2018-07-30T07:26:54.460Z,91.30
2018-07-30T07:29:22.526Z,90.10
2018-07-30T07:31:49.933Z,88.90
2018-07-30T07:34:17.309Z,89.90
2018-07-30T07:36:44.652Z,88.60
2018-07-30T07:39:12.113Z,88.50
2018-07-30T07:41:40.082Z,89.90
2018-07-30T07:44:08.140Z,83.30
2018-07-30T07:46:36.943Z,79.70
2018-07-30T07:49:06.031Z,79.80
2018-07-30T07:51:35.626Z,78.40
2018-07-30T07:54:04.650Z,83.20
2018-07-30T07:56:34.419Z,75.00
2018-07-30T07:59:03.585Z,74.10
2018-07-30T08:01:33.897Z,77.10
2018-07-30T08:04:03.406Z,78.50
2018-07-30T08:06:33.494Z,75.90
2018-07-30T08:09:02.339Z,74.50
2018-07-30T08:11:31.549Z,72.90
2018-07-30T08:13:59.260Z,70.10
2018-07-30T08:16:27.185Z,71.90
2018-07-30T08:18:54.501Z,71.30
2018-07-30T08:21:22.661Z,68.10
2018-07-30T08:23:50.241Z,69.40
2018-07-30T08:26:17.850Z,70.20
2018-07-30T08:28:45.217Z,71.20
2018-07-30T08:31:12.549Z,70.00
2018-07-30T08:33:39.972Z,70.30
2018-07-30T08:36:07.906Z,68.90
2018-07-30T08:38:35.814Z,69.40
2018-07-30T08:41:05.474Z,71.80
2018-07-30T08:43:34.465Z,67.30
2018-07-30T08:46:04.260Z,68.80
2018-07-30T08:48:34.469Z,63.70
2018-07-30T08:51:03.032Z,65.10
2018-07-30T08:53:33.269Z,62.50
2018-07-30T08:56:02.945Z,63.00
2018-07-30T08:58:31.890Z,65.40
2018-07-30T09:01:00.486Z,59.70
2018-07-30T09:03:28.309Z,60.00
2018-07-30T09:05:55.645Z,59.30
2018-07-30T09:08:23.421Z,56.00
2018-07-30T09:10:51.225Z,52.50
2018-07-30T09:13:18.901Z,50.90
2018-07-30T09:15:46.265Z,45.40
2018-07-30T09:18:13.704Z,44.30
2018-07-30T09:20:40.989Z,40.50
2018-07-30T09:23:08.806Z,37.50
2018-07-30T09:25:36.848Z,34.90
2018-07-30T09:28:06.156Z,34.20
2018-07-30T09:30:35.001Z,32.00
2018-07-30T09:33:04.555Z,33.40
2018-07-30T09:35:34.758Z,32.60
2018-07-30T09:38:04.185Z,30.30
2018-07-30T09:40:34.995Z,28.80
2018-07-30T09:43:04.485Z,30.90
2018-07-30T09:45:33.663Z,31.70
2018-07-30T09:48:03.146Z,30.70
2018-07-30T09:50:33.143Z,30.00
2018-07-30T09:53:01.684Z,31.60
2018-07-30T09:55:29.269Z,30.20
2018-07-30T09:57:57.890Z,31.80
2018-07-30T10:00:31.207Z,34.70
2018-07-30T10:02:58.752Z,36.00
2018-07-30T10:05:26.093Z,40.50
2018-07-30T10:07:53.813Z,38.10
2018-07-30T10:10:22.543Z,38.90
2018-07-30T10:12:50.089Z,38.50
2018-07-30T10:15:17.430Z,38.70
2018-07-30T10:17:45.187Z,41.10
2018-07-30T10:20:12.525Z,40.60
2018-07-30T10:25:08.257Z,41.00
2018-07-30T10:27:36.375Z,41.90
2018-07-30T10:30:06.041Z,44.50
2018-07-30T10:32:35.497Z,45.90
2018-07-30T10:35:04.719Z,44.00
2018-07-30T10:37:35.271Z,43.60
2018-07-30T10:40:04.089Z,43.50
2018-07-30T10:42:33.219Z,44.10
2018-07-30T10:45:02.733Z,44.20
2018-07-30T10:47:33.220Z,45.70
2018-07-30T10:50:02.150Z,43.60
2018-07-30T10:52:30.781Z,44.90
2018-07-30T10:54:58.703Z,44.10
2018-07-30T10:57:26.105Z,45.40
2018-07-30T10:59:53.645Z,44.60
2018-07-30T11:02:22.362Z,44.60
2018-07-30T11:04:50.919Z,44.60
2018-07-30T11:07:18.327Z,44.20
2018-07-30T11:09:45.713Z,45.20
2018-07-30T11:12:13.082Z,44.20
2018-07-30T11:14:40.714Z,44.00
2018-07-30T11:19:36.346Z,43.40
2018-07-30T11:22:05.751Z,42.60
2018-07-30T11:24:34.590Z,46.20
2018-07-30T11:27:03.666Z,42.30
2018-07-30T11:29:33.106Z,43.50
2018-07-30T11:32:01.888Z,43.40
2018-07-30T11:34:30.202Z,42.00
2018-07-30T11:36:57.953Z,42.40
2018-07-30T11:39:25.673Z,42.90
2018-07-30T11:41:53.284Z,42.60
2018-07-30T11:44:20.689Z,42.80
2018-07-30T11:46:48.300Z,40.00
2018-07-30T11:49:15.661Z,41.10
2018-07-30T11:51:43.018Z,40.10
2018-07-30T11:54:10.444Z,40.30
2018-07-30T11:56:38.165Z,41.80
2018-07-30T11:59:06.635Z,40.80
2018-07-30T12:01:35.789Z,41.40
2018-07-30T12:04:05.129Z,41.30
2018-07-30T12:06:34.573Z,40.50
2018-07-30T12:09:04.221Z,41.30
2018-07-30T12:11:34.136Z,44.40
2018-07-30T12:14:04.386Z,43.60
2018-07-30T12:16:33.910Z,42.00
2018-07-30T12:19:02.846Z,41.60
2018-07-30T12:21:32.443Z,42.80
2018-07-30T12:24:01.123Z,42.90
2018-07-30T12:26:28.655Z,40.90
2018-07-30T12:28:56.156Z,42.10
2018-07-30T12:31:23.974Z,43.40
2018-07-30T12:33:52.269Z,42.10
2018-07-30T12:36:19.633Z,42.60
2018-07-30T12:38:47.517Z,39.90
2018-07-30T12:41:14.928Z,40.70
2018-07-30T12:43:42.261Z,40.90
2018-07-30T12:46:09.618Z,39.50
2018-07-30T12:48:37.533Z,38.60
2018-07-30T12:51:06.493Z,41.70
2018-07-30T12:53:35.581Z,40.90
2018-07-30T12:56:05.420Z,40.70
2018-07-30T12:58:34.161Z,38.40
2018-07-30T13:01:02.909Z,39.10
2018-07-30T13:03:32.015Z,39.50
2018-07-30T13:06:00.728Z,39.60
2018-07-30T13:08:28.193Z,37.50
2018-07-30T13:10:55.557Z,35.50
2018-07-30T13:13:23.033Z,36.60
2018-07-30T13:15:50.582Z,35.70
2018-07-30T13:18:18.287Z,32.80
2018-07-30T13:23:12.977Z,37.50
2018-07-30T13:25:40.367Z,35.40
2018-07-30T13:28:08.671Z,33.20
2018-07-30T13:30:36.726Z,32.90
2018-07-30T13:35:34.690Z,30.80
2018-07-30T13:38:04.379Z,31.10
2018-07-30T13:40:33.825Z,32.20
2018-07-30T13:43:02.580Z,29.90
2018-07-30T13:45:31.352Z,26.50
2018-07-30T13:47:59.113Z,29.50
2018-07-30T13:50:26.522Z,29.50
2018-07-30T13:52:53.888Z,26.70
2018-07-30T13:55:21.270Z,29.20
2018-07-30T13:57:48.617Z,28.20
2018-07-30T14:00:15.988Z,30.90
2018-07-30T14:02:43.337Z,28.50
2018-07-30T14:05:10.720Z,29.00
2018-07-30T14:07:38.673Z,36.90
2018-07-30T14:10:06.741Z,43.00
2018-07-30T14:12:34.073Z,39.20
2018-07-30T14:15:01.445Z,33.00
2018-07-30T14:17:28.801Z,34.30
2018-07-30T14:19:56.149Z,30.40
2018-07-30T14:22:23.505Z,29.10
2018-07-30T14:24:51.289Z,29.90
2018-07-30T14:27:18.641Z,28.00
2018-07-30T14:29:46.198Z,27.80
2018-07-30T14:32:13.561Z,28.40
2018-07-30T14:34:40.901Z,31.30
2018-07-30T14:37:08.277Z,35.20
2018-07-30T14:39:35.641Z,29.20
2018-07-30T14:42:03.004Z,30.30
2018-07-30T14:44:30.358Z,29.70
2018-07-30T14:46:57.761Z,26.70
2018-07-30T14:49:25.265Z,27.90
2018-07-30T14:51:52.854Z,28.30
2018-07-30T14:54:20.217Z,31.80
2018-07-30T14:56:47.594Z,36.30
2018-07-30T14:59:14.991Z,37.80
2018-07-30T15:01:42.341Z,41.70
2018-07-30T15:04:09.690Z,40.10
2018-07-30T15:06:37.078Z,40.10
2018-07-30T15:09:07.994Z,44.30
2018-07-30T15:11:35.565Z,38.60
2018-07-30T15:14:02.954Z,36.90
2018-07-30T15:16:30.329Z,40.10
2018-07-30T15:18:57.685Z,42.40
2018-07-30T15:21:25.065Z,38.10
2018-07-30T15:23:52.417Z,40.80
2018-07-30T15:26:19.761Z,44.90
2018-07-30T15:28:47.137Z,38.50
2018-07-30T15:31:14.497Z,42.40
2018-07-30T15:33:41.853Z,43.10
2018-07-30T15:36:09.237Z,42.30
2018-07-30T15:38:36.582Z,39.90
2018-07-30T15:41:04.018Z,41.90
2018-07-30T15:43:31.385Z,41.10
2018-07-30T15:45:58.717Z,36.50
2018-07-30T15:48:26.057Z,40.00
2018-07-30T15:50:53.417Z,37.10
2018-07-30T15:53:20.761Z,38.30
2018-07-30T15:55:48.107Z,41.80
2018-07-30T15:58:15.458Z,42.70
2018-07-30T16:00:42.814Z,38.70
2018-07-30T16:03:10.153Z,42.10
2018-07-30T16:05:37.562Z,42.20
2018-07-30T16:08:04.912Z,44.80
2018-07-30T16:10:32.265Z,40.60
2018-07-30T16:12:59.633Z,41.10
2018-07-30T16:15:26.985Z,41.30
2018-07-30T16:17:54.452Z,40.50
2018-07-30T16:20:21.749Z,46.80
2018-07-30T16:22:49.158Z,47.80
2018-07-30T16:25:16.535Z,40.00
2018-07-30T16:27:43.950Z,42.00
2018-07-30T16:30:11.370Z,42.50
2018-07-30T16:32:38.743Z,41.90
2018-07-30T16:35:06.277Z,41.30
2018-07-30T16:37:33.637Z,42.80
2018-07-30T16:40:00.995Z,42.60
2018-07-30T16:42:28.429Z,37.80
2018-07-30T16:44:55.802Z,40.30
2018-07-30T16:47:23.153Z,40.70
2018-07-30T16:49:50.741Z,42.40
2018-07-30T16:52:18.105Z,42.70
2018-07-30T16:54:45.453Z,43.50
2018-07-30T16:57:12.845Z,43.10
2018-07-30T16:59:40.237Z,44.20
2018-07-30T17:02:07.789Z,41.10
2018-07-30T17:04:35.145Z,43.80
2018-07-30T17:07:02.500Z,44.60
2018-07-30T17:09:29.841Z,42.60
2018-07-30T17:11:57.241Z,43.20
2018-07-30T17:14:24.605Z,43.10
2018-07-30T17:16:51.979Z,42.80
2018-07-30T17:19:19.329Z,44.00
2018-07-30T17:21:46.730Z,43.80
2018-07-30T17:24:14.089Z,45.00
2018-07-30T17:26:41.469Z,44.60
2018-07-30T17:29:08.853Z,45.80
2018-07-30T17:31:36.435Z,46.10
2018-07-30T17:34:03.986Z,46.00
2018-07-30T17:36:31.642Z,45.50
2018-07-30T17:38:59.299Z,46.20
2018-07-30T17:41:26.928Z,46.20
2018-07-30T17:43:54.562Z,46.60
2018-07-30T17:46:22.217Z,45.00
2018-07-30T17:48:49.859Z,45.80
2018-07-30T17:51:17.510Z,45.80
2018-07-30T17:53:45.154Z,45.70
2018-07-30T17:56:12.746Z,46.40
2018-07-30T17:58:40.653Z,46.70
2018-07-30T18:01:08.278Z,47.50
2018-07-30T18:03:35.826Z,49.40
2018-07-30T18:06:03.631Z,51.60
2018-07-30T18:08:31.424Z,53.00
2018-07-30T18:11:00.761Z,48.30
2018-07-30T18:13:29.406Z,50.30
2018-07-30T18:15:57.002Z,49.00
2018-07-30T18:18:24.837Z,50.60
2018-07-30T18:20:52.650Z,49.40
2018-07-30T18:23:20.307Z,49.30
2018-07-30T18:25:48.154Z,49.30
2018-07-30T18:28:15.732Z,50.00
2018-07-30T18:30:43.377Z,49.90
2018-07-30T18:33:11.180Z,48.70
2018-07-30T18:35:39.002Z,50.60
2018-07-30T18:38:06.654Z,52.30
2018-07-30T18:40:34.306Z,52.30
2018-07-30T18:43:01.981Z,55.70
2018-07-30T18:45:29.590Z,57.40
2018-07-30T18:47:57.246Z,58.30
2018-07-30T18:50:24.854Z,57.10
2018-07-30T18:55:20.066Z,57.30
2018-07-30T18:57:47.922Z,57.30
2018-07-30T19:00:15.981Z,59.80
2018-07-30T19:02:43.558Z,62.00
2018-07-30T19:05:11.255Z,59.60
2018-07-30T19:07:38.891Z,58.10
2018-07-30T19:10:06.866Z,56.10
2018-07-30T19:12:34.584Z,55.40
2018-07-30T19:15:02.166Z,55.30
2018-07-30T19:17:29.782Z,53.80
2018-07-30T19:22:24.868Z,54.60
2018-07-30T19:24:52.498Z,54.20
2018-07-30T19:27:20.117Z,54.90
2018-07-30T19:29:47.866Z,55.10
2018-07-30T19:32:15.521Z,60.50
2018-07-30T19:34:43.186Z,58.30
2018-07-30T19:37:10.926Z,58.60
2018-07-30T19:39:38.611Z,60.90
2018-07-30T19:42:06.458Z,61.50
2018-07-30T19:44:34.172Z,60.70
2018-07-30T19:47:01.778Z,59.30
2018-07-30T19:49:29.432Z,65.50
2018-07-30T19:51:57.302Z,67.10
2018-07-30T19:54:24.923Z,61.40
2018-07-30T19:56:52.686Z,61.60
2018-07-30T19:59:20.306Z,62.60
2018-07-30T20:01:47.898Z,61.70
2018-07-30T20:04:15.566Z,62.10
2018-07-30T20:06:43.107Z,65.90
2018-07-30T20:09:11.782Z,64.30
2018-07-30T20:11:39.455Z,66.50
2018-07-30T20:14:07.051Z,63.80
2018-07-30T20:16:34.844Z,63.20
2018-07-30T20:19:02.477Z,65.10
2018-07-30T20:21:30.051Z,64.20
2018-07-30T20:23:57.555Z,65.20
2018-07-30T20:26:25.273Z,65.00
2018-07-30T20:28:52.913Z,67.60
2018-07-30T20:31:23.640Z,64.70
2018-07-30T20:33:51.843Z,66.70
2018-07-30T20:36:19.467Z,64.40
2018-07-30T20:38:47.154Z,65.50
2018-07-30T20:41:14.946Z,64.90
2018-07-30T20:43:42.778Z,63.80
2018-07-30T20:46:10.502Z,65.30
2018-07-30T20:48:38.118Z,64.60
2018-07-30T20:51:05.719Z,64.90
2018-07-30T20:53:34.041Z,66.10
2018-07-30T20:56:07.612Z,66.50
2018-07-30T20:58:35.392Z,65.60
2018-07-30T21:01:03.014Z,68.30
2018-07-30T21:03:30.742Z,67.30
2018-07-30T21:05:58.758Z,69.40
2018-07-30T21:08:26.434Z,69.70
2018-07-30T21:10:54.057Z,70.60
2018-07-30T21:13:21.694Z,70.40
2018-07-30T21:15:49.294Z,72.70
2018-07-30T21:18:16.950Z,69.40
2018-07-30T21:20:44.599Z,71.40
2018-07-30T21:23:12.242Z,70.10
2018-07-30T21:25:39.886Z,69.80
2018-07-30T21:28:07.514Z,69.20
2018-07-30T21:30:35.154Z,70.10
2018-07-30T21:33:02.795Z,72.50
2018-07-30T21:35:30.383Z,72.10
2018-07-30T21:37:58.058Z,69.70
2018-07-30T21:42:53.282Z,69.80
2018-07-30T21:45:20.913Z,72.60
2018-07-30T21:47:48.630Z,70.50
2018-07-30T21:50:16.478Z,71.50
2018-07-30T21:52:44.279Z,71.10
2018-07-30T21:55:11.934Z,72.30
2018-07-30T21:57:39.570Z,71.80
2018-07-30T22:00:12.387Z,72.20
2018-07-30T22:04:50.041Z,72.70
2018-07-30T22:07:17.462Z,80.60
2018-07-30T22:09:44.841Z,86.30
2018-07-30T22:12:12.182Z,91.50
2018-07-30T22:14:39.593Z,95.50
2018-07-30T22:17:07.181Z,98.70
2018-07-30T22:19:34.525Z,99.80
2018-07-30T22:22:01.905Z,99.90
2018-07-30T22:24:29.513Z,99.90
2018-07-30T22:26:56.943Z,99.90
2018-07-30T22:29:24.331Z,99.90
2018-07-30T22:31:51.691Z,99.90
2018-07-30T22:34:19.034Z,99.90
2018-07-30T22:36:48.976Z,99.90
2018-07-30T22:39:16.462Z,99.90
2018-07-30T22:41:43.850Z,99.90
2018-07-30T22:44:11.205Z,99.90
2018-07-30T22:46:38.573Z,99.90
2018-07-30T22:49:05.909Z,99.90
2018-07-30T22:51:33.273Z,99.90
2018-07-30T22:54:00.653Z,99.90
2018-07-30T22:56:28.067Z,99.90
2018-07-30T22:58:55.413Z,99.90
2018-07-30T23:01:22.773Z,99.90
2018-07-30T23:03:50.102Z,99.90
2018-07-30T23:06:17.466Z,99.90
2018-07-30T23:08:44.812Z,99.90
2018-07-30T23:11:12.169Z,99.90
2018-07-30T23:13:39.519Z,99.90
2018-07-30T23:16:07.190Z,99.90
2018-07-30T23:18:34.489Z,99.90
2018-07-30T23:21:01.869Z,99.90
2018-07-30T23:23:29.225Z,99.90
2018-07-30T23:25:56.594Z,99.90
2018-07-30T23:28:23.953Z,99.90
2018-07-30T23:30:51.317Z,99.90
2018-07-30T23:33:18.653Z,99.90
2018-07-30T23:35:46.021Z,99.90
2018-07-30T23:38:13.373Z,99.90
2018-07-30T23:40:40.721Z,99.90
2018-07-30T23:43:08.074Z,99.90
2018-07-30T23:45:35.477Z,99.90
2018-07-30T23:48:02.829Z,99.90
2018-07-30T23:50:30.177Z,99.90
2018-07-30T23:52:57.536Z,99.90
2018-07-30T23:55:25.244Z,99.90
2018-07-30T23:57:52.616Z,99.90
